createdAt,value
2022-09-28T00:03:49.218Z,96.49
2022-09-28T00:07:50.517Z,96.38
2022-09-28T00:11:53.698Z,96.34
2022-09-28T00:16:05.924Z,96.47
2022-09-28T00:20:07.371Z,96.58
2022-09-28T00:24:18.941Z,96.26
2022-09-28T00:28:20.253Z,96.42
2022-09-28T00:32:24.527Z,95.87
2022-09-28T00:36:29.457Z,95.76
2022-09-28T00:40:30.713Z,95.68
2022-09-28T00:44:36.142Z,96.09
2022-09-28T00:48:39.441Z,95.61
2022-09-28T00:52:59.949Z,95.89
2022-09-28T00:57:08.878Z,96.55
2022-09-28T01:01:10.383Z,96.78
2022-09-28T01:05:12.869Z,96.28
2022-09-28T01:09:15.158Z,96.51
2022-09-28T01:13:17.671Z,96.18
2022-09-28T01:17:26.657Z,97.00
2022-09-28T01:21:28.065Z,96.45
2022-09-28T01:25:35.989Z,96.83
2022-09-28T01:29:50.884Z,96.67
2022-09-28T01:33:55.695Z,97.27
2022-09-28T01:38:01.492Z,97.11
2022-09-28T01:42:05.594Z,97.01
2022-09-28T01:46:18.932Z,97.11
2022-09-28T01:50:41.715Z,96.61
2022-09-28T01:54:54.445Z,97.07
2022-09-28T01:59:06.960Z,97.05
2022-09-28T02:03:20.718Z,97.21
2022-09-28T02:07:42.454Z,96.84
2022-09-28T02:11:47.862Z,96.96
2022-09-28T02:15:51.731Z,96.49
2022-09-28T02:19:59.946Z,96.47
2022-09-28T02:24:11.466Z,96.50
2022-09-28T02:28:15.753Z,97.01
2022-09-28T02:32:25.288Z,97.07
2022-09-28T02:36:27.437Z,97.59
2022-09-28T02:40:38.022Z,97.06
2022-09-28T02:45:00.937Z,97.90
2022-09-28T02:49:20.436Z,97.49
2022-09-28T02:53:48.981Z,97.73
2022-09-28T02:57:50.228Z,97.79
2022-09-28T03:02:03.850Z,97.81
2022-09-28T03:06:20.953Z,97.96
2022-09-28T03:10:25.504Z,98.08
2022-09-28T03:14:26.874Z,98.16
2022-09-28T03:18:28.309Z,97.91
2022-09-28T03:22:36.088Z,98.11
2022-09-28T03:26:40.309Z,98.33
2022-09-28T03:30:43.491Z,98.27
2022-09-28T03:34:44.814Z,97.67
2022-09-28T03:38:46.081Z,98.05
2022-09-28T03:42:47.400Z,97.87
2022-09-28T03:46:48.659Z,97.65
2022-09-28T03:50:52.667Z,98.24
2022-09-28T03:55:00.000Z,97.74
2022-09-28T03:59:02.740Z,98.19
2022-09-28T04:03:11.027Z,98.01
2022-09-28T04:07:12.271Z,98.28
2022-09-28T04:11:13.553Z,98.00
2022-09-28T04:15:14.980Z,97.79
2022-09-28T04:19:16.284Z,97.83
2022-09-28T04:23:17.689Z,98.35
2022-09-28T04:27:37.758Z,98.07
2022-09-28T04:31:40.950Z,98.35
2022-09-28T04:35:42.314Z,98.23
2022-09-28T04:39:49.977Z,98.20
2022-09-28T04:43:51.322Z,97.97
2022-09-28T04:47:52.924Z,97.99
2022-09-28T04:51:54.236Z,98.37
2022-09-28T04:56:05.997Z,97.95
2022-09-28T05:00:15.011Z,97.56
2022-09-28T05:04:16.323Z,97.22
2022-09-28T05:08:18.153Z,97.60
2022-09-28T05:12:19.420Z,97.76
2022-09-28T05:16:20.729Z,97.45
2022-09-28T05:20:22.241Z,97.00
2022-09-28T05:24:23.985Z,96.39
2022-09-28T05:28:27.109Z,96.26
2022-09-28T05:32:28.361Z,96.77
2022-09-28T05:36:30.191Z,95.97
2022-09-28T05:40:31.649Z,96.56
2022-09-28T05:44:39.052Z,95.96
2022-09-28T05:48:40.305Z,96.11
2022-09-28T05:52:42.105Z,96.03
2022-09-28T05:56:43.392Z,96.30
2022-09-28T06:00:45.089Z,96.37
2022-09-28T06:04:55.047Z,96.29
2022-09-28T06:08:56.344Z,96.23
2022-09-28T06:13:05.023Z,96.13
2022-09-28T06:17:06.687Z,96.22
2022-09-28T06:21:10.945Z,96.20
2022-09-28T06:25:12.221Z,96.41
2022-09-28T06:29:19.961Z,96.62
2022-09-28T06:33:21.964Z,96.88
2022-09-28T06:37:32.890Z,96.72
2022-09-28T06:41:41.104Z,97.59
2022-09-28T06:45:43.133Z,98.07
2022-09-28T06:49:47.649Z,98.62
2022-09-28T06:53:48.977Z,98.17
2022-09-28T06:58:00.391Z,98.55
2022-09-28T07:02:01.703Z,98.46
2022-09-28T07:06:04.372Z,98.20
2022-09-28T07:10:05.971Z,98.14
2022-09-28T07:14:33.246Z,97.66
2022-09-28T07:18:35.302Z,97.08
2022-09-28T07:22:43.129Z,96.65
2022-09-28T07:26:45.394Z,96.16
2022-09-28T07:30:53.259Z,95.11
2022-09-28T07:34:58.871Z,94.74
2022-09-28T07:39:01.377Z,93.59
2022-09-28T07:43:06.232Z,93.17
2022-09-28T07:47:07.637Z,93.09
2022-09-28T07:51:09.481Z,92.22
2022-09-28T07:55:10.875Z,92.02
2022-09-28T07:59:12.377Z,90.70
2022-09-28T08:03:24.081Z,90.46
2022-09-28T08:07:25.623Z,88.15
2022-09-28T08:11:27.164Z,86.03
2022-09-28T08:15:30.520Z,85.22
2022-09-28T08:19:57.335Z,83.07
2022-09-28T08:23:58.776Z,79.78
2022-09-28T08:28:00.708Z,81.53
2022-09-28T08:32:02.407Z,80.33
2022-09-28T08:36:04.625Z,79.76
2022-09-28T08:40:06.539Z,78.87
2022-09-28T08:44:24.513Z,77.44
2022-09-28T08:48:48.565Z,78.28
2022-09-28T08:53:03.664Z,77.15
2022-09-28T08:57:13.941Z,77.55
2022-09-28T09:01:18.879Z,76.93
2022-09-28T09:05:22.911Z,77.29
2022-09-28T09:09:40.386Z,76.24
2022-09-28T09:13:47.449Z,77.31
2022-09-28T09:18:02.104Z,76.73
2022-09-28T09:22:27.617Z,78.59
2022-09-28T09:26:45.205Z,77.28
2022-09-28T09:31:01.719Z,76.41
2022-09-28T09:35:13.480Z,77.30
2022-09-28T09:39:24.203Z,77.60
2022-09-28T09:43:31.542Z,75.22
2022-09-28T09:47:42.872Z,72.38
2022-09-28T09:51:44.148Z,68.58
2022-09-28T09:55:46.489Z,68.95
2022-09-28T09:59:55.137Z,65.13
2022-09-28T10:03:59.139Z,67.17
2022-09-28T10:08:00.516Z,66.94
2022-09-28T10:12:01.935Z,65.60
2022-09-28T10:16:12.375Z,66.71
2022-09-28T10:20:15.845Z,64.15
2022-09-28T10:24:23.573Z,65.22
2022-09-28T10:28:54.697Z,65.99
2022-09-28T10:32:59.499Z,65.36
2022-09-28T10:37:10.412Z,65.40
2022-09-28T10:41:13.839Z,63.01
2022-09-28T10:45:23.157Z,62.34
2022-09-28T10:49:26.252Z,64.34
2022-09-28T10:53:29.431Z,63.95
2022-09-28T10:57:36.708Z,66.46
2022-09-28T11:01:38.498Z,68.68
2022-09-28T11:05:40.640Z,68.93
2022-09-28T11:09:45.077Z,70.69
2022-09-28T11:13:49.969Z,69.47
2022-09-28T11:17:54.330Z,68.94
2022-09-28T11:22:03.119Z,68.43
2022-09-28T11:26:07.093Z,68.01
2022-09-28T11:30:23.006Z,68.55
2022-09-28T11:34:47.795Z,65.90
2022-09-28T11:39:04.261Z,64.54
2022-09-28T11:43:18.099Z,63.23
2022-09-28T11:47:49.332Z,61.28
2022-09-28T11:51:53.150Z,62.48
2022-09-28T11:56:08.861Z,64.41
2022-09-28T12:00:15.594Z,65.39
2022-09-28T12:04:21.040Z,64.34
2022-09-28T12:08:25.460Z,62.30
2022-09-28T12:12:39.567Z,61.05
2022-09-28T12:17:06.933Z,57.67
2022-09-28T12:21:29.648Z,54.51
2022-09-28T12:25:37.367Z,53.46
2022-09-28T12:29:49.979Z,51.92
2022-09-28T12:33:52.695Z,53.18
2022-09-28T12:38:08.934Z,52.34
2022-09-28T12:42:11.720Z,53.25
2022-09-28T12:46:39.962Z,53.74
2022-09-28T12:50:47.523Z,54.79
2022-09-28T12:55:13.258Z,54.72
2022-09-28T12:59:25.691Z,53.17
2022-09-28T13:03:52.228Z,53.96
2022-09-28T13:08:06.240Z,53.89
2022-09-28T13:12:15.666Z,53.03
2022-09-28T13:16:27.252Z,54.46
2022-09-28T13:20:40.052Z,53.41
2022-09-28T13:24:44.790Z,53.06
2022-09-28T13:28:47.369Z,53.80
2022-09-28T13:32:56.403Z,53.39
2022-09-28T13:37:10.084Z,54.57
2022-09-28T13:41:13.534Z,56.17
2022-09-28T13:45:24.337Z,56.83
2022-09-28T13:49:48.280Z,55.94
2022-09-28T13:54:05.462Z,55.46
2022-09-28T13:58:16.572Z,55.50
2022-09-28T14:02:26.967Z,56.38
2022-09-28T14:06:30.601Z,55.94
2022-09-28T14:10:58.322Z,52.49
2022-09-28T14:15:00.274Z,52.84
2022-09-28T14:19:20.609Z,53.78
2022-09-28T14:23:52.716Z,53.70
2022-09-28T14:28:14.757Z,53.14
2022-09-28T14:32:16.345Z,52.91
2022-09-28T14:37:12.467Z,51.81
2022-09-28T14:41:20.285Z,53.54
2022-09-28T14:45:41.334Z,50.30
2022-09-28T14:49:43.856Z,50.76
2022-09-28T14:53:46.641Z,51.82
2022-09-28T14:57:53.081Z,52.60
2022-09-28T15:02:00.732Z,51.91
2022-09-28T15:06:08.673Z,52.91
2022-09-28T15:10:27.754Z,51.72
2022-09-28T15:14:33.817Z,51.94
2022-09-28T15:18:55.772Z,53.21
2022-09-28T15:22:59.227Z,53.07
2022-09-28T15:27:14.274Z,53.63
2022-09-28T15:31:18.233Z,54.45
2022-09-28T15:35:23.633Z,55.48
2022-09-28T15:39:41.987Z,57.10
2022-09-28T15:43:47.515Z,57.52
2022-09-28T15:47:50.289Z,54.62
2022-09-28T15:51:54.480Z,54.00
2022-09-28T15:56:00.480Z,51.94
2022-09-28T16:00:04.586Z,51.58
2022-09-28T16:04:25.176Z,49.80
2022-09-28T16:08:35.900Z,45.82
2022-09-28T16:12:37.173Z,39.11
2022-09-28T16:16:51.832Z,36.30
2022-09-28T16:20:57.837Z,37.00
2022-09-28T16:25:01.762Z,41.64
2022-09-28T16:29:08.900Z,45.29
2022-09-28T16:33:30.403Z,47.76
2022-09-28T16:37:40.001Z,53.84
2022-09-28T16:41:44.419Z,55.85
2022-09-28T16:45:46.181Z,57.87
2022-09-28T16:49:48.060Z,61.38
2022-09-28T16:54:08.245Z,63.52
2022-09-28T16:58:09.760Z,65.58
2022-09-28T17:06:53.412Z,69.58
2022-09-28T17:11:13.887Z,69.58
2022-09-28T17:15:26.637Z,71.07
2022-09-28T17:19:29.849Z,72.53
2022-09-28T17:23:31.107Z,72.42
2022-09-28T17:27:32.373Z,72.69
2022-09-28T17:31:33.645Z,73.87
2022-09-28T17:35:43.415Z,74.58
2022-09-28T17:39:51.460Z,75.76
2022-09-28T17:43:52.750Z,76.89
2022-09-28T17:47:54.820Z,77.01
2022-09-28T17:51:56.218Z,77.74
2022-09-28T17:55:57.501Z,77.94
2022-09-28T17:59:58.811Z,78.51
2022-09-28T18:04:02.265Z,78.89
2022-09-28T18:08:12.199Z,79.43
2022-09-28T18:12:14.574Z,80.00
2022-09-28T18:16:16.901Z,80.82
2022-09-28T18:20:19.176Z,81.01
2022-09-28T18:24:21.017Z,81.80
2022-09-28T18:28:23.279Z,82.34
2022-09-28T18:32:24.908Z,82.64
2022-09-28T18:36:30.473Z,82.64
2022-09-28T18:40:33.520Z,82.40
2022-09-28T18:44:35.464Z,82.49
2022-09-28T18:48:44.137Z,83.34
2022-09-28T18:52:47.390Z,82.90
2022-09-28T18:56:50.207Z,83.82
2022-09-28T19:00:51.793Z,83.59
2022-09-28T19:04:53.143Z,83.51
2022-09-28T19:09:02.545Z,84.19
2022-09-28T19:13:03.945Z,84.48
2022-09-28T19:17:05.697Z,84.38
2022-09-28T19:21:08.339Z,84.86
2022-09-28T19:25:09.893Z,85.13
2022-09-28T19:29:11.268Z,85.85
2022-09-28T19:33:19.697Z,85.63
2022-09-28T19:37:20.991Z,85.89
2022-09-28T19:41:44.370Z,86.13
2022-09-28T19:45:46.821Z,85.73
2022-09-28T19:49:49.022Z,86.18
2022-09-28T19:53:50.435Z,86.47
2022-09-28T19:57:52.015Z,86.42
2022-09-28T20:02:02.835Z,86.84
2022-09-28T20:06:04.448Z,86.79
2022-09-28T20:10:06.134Z,87.49
2022-09-28T20:14:09.740Z,87.56
2022-09-28T20:18:12.413Z,87.95
2022-09-28T20:22:13.772Z,87.77
2022-09-28T20:26:15.449Z,87.59
2022-09-28T20:30:23.629Z,87.86
2022-09-28T20:34:25.086Z,87.87
2022-09-28T20:38:26.321Z,88.04
2022-09-28T20:42:34.911Z,88.21
2022-09-28T20:46:36.877Z,88.68
2022-09-28T20:50:38.276Z,88.73
2022-09-28T20:54:39.577Z,88.72
2022-09-28T20:58:40.889Z,88.50
2022-09-28T21:02:48.498Z,88.59
2022-09-28T21:06:49.823Z,88.79
2022-09-28T21:10:54.738Z,89.03
2022-09-28T21:14:56.166Z,89.12
2022-09-28T21:19:04.217Z,88.79
2022-09-28T21:23:05.500Z,89.02
2022-09-28T21:27:06.821Z,89.41
2022-09-28T21:31:10.308Z,89.62
2022-09-28T21:35:11.780Z,90.11
2022-09-28T21:39:13.846Z,90.51
2022-09-28T21:43:21.692Z,89.84
2022-09-28T21:47:23.014Z,89.83
2022-09-28T21:51:24.513Z,90.28
2022-09-28T21:55:25.802Z,90.97
2022-09-28T21:59:27.486Z,91.46
2022-09-28T22:03:35.518Z,91.71
2022-09-28T22:07:38.169Z,91.07
2022-09-28T22:11:45.515Z,90.33
2022-09-28T22:15:51.963Z,90.15
2022-09-28T22:19:53.349Z,89.64
2022-09-28T22:23:58.408Z,89.51
2022-09-28T22:27:59.820Z,89.15
2022-09-28T22:32:03.107Z,89.01
2022-09-28T22:36:04.603Z,89.05
2022-09-28T22:40:12.573Z,89.24
2022-09-28T22:44:20.599Z,89.34
2022-09-28T22:48:21.860Z,89.30
2022-09-28T22:52:29.809Z,89.60
2022-09-28T22:56:37.747Z,89.24
2022-09-28T23:00:39.081Z,89.40
2022-09-28T23:04:40.359Z,89.42
2022-09-28T23:08:42.116Z,89.67
2022-09-28T23:12:43.620Z,89.96
2022-09-28T23:16:44.972Z,90.17
2022-09-28T23:20:52.221Z,90.45
2022-09-28T23:24:59.715Z,90.24
2022-09-28T23:29:07.532Z,89.99
2022-09-28T23:33:15.628Z,89.97
2022-09-28T23:37:16.933Z,89.98
2022-09-28T23:41:25.571Z,90.00
2022-09-28T23:45:27.264Z,89.56
2022-09-28T23:49:29.560Z,89.35
2022-09-28T23:53:32.393Z,89.74
2022-09-28T23:57:33.894Z,90.40
